createdAt,value
2019-01-10T00:03:48.946Z,101352.36
2019-01-10T00:08:51.343Z,101351.54
2019-01-10T00:13:53.535Z,101355.95
2019-01-10T00:18:55.711Z,101363.72
2019-01-10T00:23:57.874Z,101372.72
2019-01-10T00:29:00.060Z,101368.91
2019-01-10T00:34:02.387Z,101381.83
2019-01-10T00:39:06.352Z,101379.28
2019-01-10T00:44:08.594Z,101379.26
2019-01-10T00:49:11.592Z,101386.98
2019-01-10T00:54:13.737Z,101396.33
2019-01-10T00:59:16.646Z,101402.73
2019-01-10T01:04:19.552Z,101402.73
2019-01-10T01:09:22.088Z,101415.16
2019-01-10T01:14:24.977Z,101413.81
2019-01-10T01:19:27.696Z,101427.09
2019-01-10T01:24:30.028Z,101434.88
2019-01-10T01:29:33.524Z,101442.62
2019-01-10T01:34:36.432Z,101444.34
2019-01-10T01:39:39.080Z,101452.98
2019-01-10T01:44:41.492Z,101464.14
2019-01-10T01:49:44.223Z,101472.35
2019-01-10T01:54:46.401Z,101480.94
2019-01-10T01:59:48.879Z,101495.17
2019-01-10T02:04:51.036Z,101500.32
2019-01-10T02:09:53.396Z,101508.45
2019-01-10T02:14:56.093Z,101513.61
2019-01-10T02:19:58.640Z,101517.05
2019-01-10T02:25:01.152Z,101523.06
2019-01-10T02:30:06.727Z,101526.08
2019-01-10T02:35:09.797Z,101539.42
2019-01-10T02:40:12.829Z,101543.26
2019-01-10T02:45:16.036Z,101547.02
2019-01-10T02:50:21.273Z,101547.45
2019-01-10T02:55:23.515Z,101554.34
2019-01-10T03:00:26.403Z,101561.16
2019-01-10T03:05:29.231Z,101560.66
2019-01-10T03:10:31.507Z,101561.98
2019-01-10T03:15:34.377Z,101569.31
2019-01-10T03:20:37.035Z,101572.75
2019-01-10T03:25:39.456Z,101576.97
2019-01-10T03:30:41.578Z,101560.31
2019-01-10T03:35:43.737Z,101573.19
2019-01-10T03:40:46.007Z,101573.64
2019-01-10T03:45:48.734Z,101583.13
2019-01-10T03:50:51.686Z,101582.80
2019-01-10T03:55:54.302Z,101582.78
2019-01-10T04:00:56.482Z,101593.06
2019-01-10T04:05:58.917Z,101591.80
2019-01-10T04:11:01.346Z,101594.00
2019-01-10T04:16:03.728Z,101596.16
2019-01-10T04:21:16.697Z,101597.09
2019-01-10T04:26:10.525Z,101604.39
2019-01-10T04:31:12.957Z,101610.81
2019-01-10T04:36:15.121Z,101613.84
2019-01-10T04:41:17.717Z,101619.48
2019-01-10T04:46:20.206Z,101612.27
2019-01-10T04:51:22.607Z,101624.34
2019-01-10T04:56:25.048Z,101628.29
2019-01-10T05:01:27.740Z,101628.34
2019-01-10T05:06:29.939Z,101637.36
2019-01-10T05:11:32.148Z,101639.05
2019-01-10T05:16:34.948Z,101650.20
2019-01-10T05:21:37.568Z,101654.42
2019-01-10T05:26:40.293Z,101656.56
2019-01-10T05:31:42.679Z,101662.20
2019-01-10T05:36:44.863Z,101669.91
2019-01-10T05:41:47.039Z,101677.19
2019-01-10T05:46:49.928Z,101675.47
2019-01-10T05:51:52.591Z,101684.41
2019-01-10T05:56:55.033Z,101684.47
2019-01-10T06:01:57.449Z,101691.76
2019-01-10T06:06:59.734Z,101702.89
2019-01-10T06:12:02.597Z,101706.86
2019-01-10T06:17:04.752Z,101723.52
2019-01-10T06:22:06.963Z,101723.14
2019-01-10T06:27:09.156Z,101727.86
2019-01-10T06:32:12.291Z,101745.00
2019-01-10T06:37:14.912Z,101745.48
2019-01-10T06:42:17.316Z,101745.08
2019-01-10T06:47:19.741Z,101742.13
2019-01-10T06:52:21.997Z,101747.71
2019-01-10T06:57:24.164Z,101755.95
2019-01-10T07:02:26.711Z,101766.24
2019-01-10T07:07:28.888Z,101765.87
2019-01-10T07:12:31.794Z,101767.64
2019-01-10T07:17:34.050Z,101777.54
2019-01-10T07:22:42.956Z,101773.76
2019-01-10T07:27:45.769Z,101772.95
2019-01-10T07:32:48.053Z,101790.14
2019-01-10T07:37:56.624Z,101791.48
2019-01-10T07:42:59.615Z,101796.20
2019-01-10T07:48:07.145Z,101811.21
2019-01-10T07:53:09.733Z,101814.16
2019-01-10T07:58:12.377Z,101819.67
2019-01-10T08:03:14.612Z,101832.92
2019-01-10T08:08:17.168Z,101839.30
2019-01-10T08:13:19.768Z,101844.81
2019-01-10T08:18:21.986Z,101847.33
2019-01-10T08:23:24.711Z,101856.31
2019-01-10T08:28:26.876Z,101866.58
2019-01-10T08:33:29.154Z,101874.70
2019-01-10T08:38:31.374Z,101872.94
2019-01-10T08:43:33.652Z,101873.38
2019-01-10T08:48:36.169Z,101875.51
2019-01-10T08:53:38.754Z,101888.30
2019-01-10T08:58:41.185Z,101887.39
2019-01-10T09:03:43.376Z,101901.47
2019-01-10T09:08:45.781Z,101907.45
2019-01-10T09:13:47.960Z,101912.52
2019-01-10T09:18:50.093Z,101914.62
2019-01-10T09:23:52.223Z,101917.98
2019-01-10T09:28:54.774Z,101918.67
2019-01-10T09:33:57.520Z,101923.08
2019-01-10T09:38:59.774Z,101920.98
2019-01-10T09:44:02.168Z,101926.77
2019-01-10T09:49:04.668Z,101931.05
2019-01-10T09:54:07.072Z,101938.59
2019-01-10T09:59:09.284Z,101950.28
2019-01-10T10:04:11.518Z,101953.42
2019-01-10T10:09:13.758Z,101953.06
2019-01-10T10:14:16.372Z,101951.59
2019-01-10T10:19:18.585Z,101953.52
2019-01-10T10:24:20.774Z,101959.02
2019-01-10T10:29:22.924Z,101963.21
2019-01-10T10:34:25.186Z,101952.58
2019-01-10T10:39:27.680Z,101949.56
2019-01-10T10:44:29.803Z,101946.08
2019-01-10T10:49:32.087Z,101945.02
2019-01-10T10:54:35.230Z,101943.13
2019-01-10T10:59:37.778Z,101944.03
2019-01-10T11:04:40.439Z,101938.39
2019-01-10T11:09:42.882Z,101941.07
2019-01-10T11:14:48.266Z,101936.91
2019-01-10T11:19:51.182Z,101937.61
2019-01-10T11:24:54.114Z,101936.95
2019-01-10T11:29:56.425Z,101933.94
2019-01-10T11:34:58.584Z,101933.88
2019-01-10T11:40:01.040Z,101932.50
2019-01-10T11:45:06.240Z,101928.80
2019-01-10T11:50:10.634Z,101926.48
2019-01-10T11:55:13.282Z,101917.84
2019-01-10T12:00:28.277Z,101915.05
2019-01-10T12:05:30.771Z,101908.47
2019-01-10T12:10:33.015Z,101910.77
2019-01-10T12:15:37.768Z,101907.51
2019-01-10T12:20:40.291Z,101905.45
2019-01-10T12:25:42.556Z,101909.71
2019-01-10T12:30:45.345Z,101911.45
2019-01-10T12:35:47.632Z,101907.49
2019-01-10T12:40:50.687Z,101909.84
2019-01-10T12:45:52.968Z,101906.41
2019-01-10T12:50:55.393Z,101911.07
2019-01-10T12:55:58.091Z,101908.48
2019-01-10T13:01:00.836Z,101910.38
2019-01-10T13:06:03.314Z,101918.13
2019-01-10T13:11:05.498Z,101918.89
2019-01-10T13:16:07.627Z,101916.48
2019-01-10T13:21:09.879Z,101922.59
2019-01-10T13:26:12.272Z,101921.83
2019-01-10T13:31:14.435Z,101922.05
2019-01-10T13:36:16.706Z,101918.70
2019-01-10T13:41:19.192Z,101921.84
2019-01-10T13:46:21.435Z,101921.44
2019-01-10T13:51:23.902Z,101922.81
2019-01-10T13:56:26.043Z,101926.31
2019-01-10T14:01:28.274Z,101931.89
2019-01-10T14:06:30.972Z,101930.70
2019-01-10T14:11:33.848Z,101935.92
2019-01-10T14:16:36.116Z,101944.62
2019-01-10T14:21:38.340Z,101951.19
2019-01-10T14:26:41.132Z,101955.50
2019-01-10T14:31:43.588Z,101958.20
2019-01-10T14:36:46.481Z,101963.42
2019-01-10T14:41:48.694Z,101962.21
2019-01-10T14:46:50.905Z,101963.94
2019-01-10T14:51:53.368Z,101963.59
2019-01-10T14:56:58.130Z,101964.95
2019-01-10T15:02:00.893Z,101962.01
2019-01-10T15:07:03.415Z,101966.38
2019-01-10T15:12:05.690Z,101968.95
2019-01-10T15:17:13.778Z,101966.00
2019-01-10T15:22:12.767Z,101978.52
2019-01-10T15:27:15.302Z,101980.24
2019-01-10T15:32:17.871Z,101989.75
2019-01-10T15:37:20.053Z,101985.50
2019-01-10T15:42:22.903Z,101982.09
2019-01-10T15:47:25.155Z,101986.81
2019-01-10T15:52:27.321Z,101979.52
2019-01-10T15:57:29.663Z,101973.95
2019-01-10T16:02:32.319Z,101971.84
2019-01-10T16:07:35.088Z,101974.44
2019-01-10T16:12:37.363Z,101977.00
2019-01-10T16:17:39.758Z,101984.36
2019-01-10T16:22:42.277Z,101980.50
2019-01-10T16:27:44.784Z,101984.37
2019-01-10T16:32:47.054Z,101983.52
2019-01-10T16:37:49.586Z,101987.90
2019-01-10T16:42:52.584Z,101987.54
2019-01-10T16:47:55.275Z,101985.84
2019-01-10T16:52:57.536Z,101988.89
2019-01-10T16:57:59.728Z,101997.08
2019-01-10T17:03:02.397Z,101988.53
2019-01-10T17:08:05.335Z,101986.39
2019-01-10T17:13:08.486Z,101992.44
2019-01-10T17:18:10.669Z,101989.50
2019-01-10T17:23:12.931Z,101986.50
2019-01-10T17:28:15.252Z,101981.80
2019-01-10T17:33:17.537Z,101978.36
2019-01-10T17:38:20.108Z,101985.64
2019-01-10T17:43:22.673Z,101981.84
2019-01-10T17:48:25.570Z,101982.70
2019-01-10T17:53:27.837Z,101989.98
2019-01-10T17:58:30.419Z,101985.27
2019-01-10T18:03:32.600Z,101992.98
2019-01-10T18:08:35.398Z,101982.28
2019-01-10T18:13:38.070Z,101993.09
2019-01-10T18:18:40.718Z,102002.10
2019-01-10T18:23:43.611Z,102001.28
2019-01-10T18:28:46.099Z,102003.05
2019-01-10T18:33:48.469Z,102006.95
2019-01-10T18:38:51.220Z,102005.73
2019-01-10T18:43:53.579Z,102003.16
2019-01-10T18:48:55.961Z,101999.31
2019-01-10T18:53:58.611Z,102001.49
2019-01-10T18:59:00.749Z,101999.36
2019-01-10T19:04:02.834Z,102002.83
2019-01-10T19:09:07.017Z,102013.59
2019-01-10T19:14:09.486Z,102012.35
2019-01-10T19:19:12.255Z,102014.53
2019-01-10T19:24:14.419Z,102012.44
2019-01-10T19:29:17.080Z,102015.87
2019-01-10T19:34:21.807Z,102012.44
2019-01-10T19:39:24.581Z,102011.16
2019-01-10T19:44:26.861Z,102018.05
2019-01-10T19:49:29.078Z,102016.77
2019-01-10T19:54:31.514Z,102019.38
2019-01-10T19:59:34.032Z,102008.30
2019-01-10T20:04:36.755Z,102006.15
2019-01-10T20:09:39.361Z,102003.97
2019-01-10T20:14:41.840Z,102014.29
2019-01-10T20:19:44.190Z,102010.91
2019-01-10T20:24:47.111Z,102024.56
2019-01-10T20:29:49.690Z,102013.94
2019-01-10T20:34:52.000Z,102020.79
2019-01-10T20:39:54.155Z,102020.44
2019-01-10T20:44:56.648Z,102011.03
2019-01-10T20:49:59.075Z,102007.60
2019-01-10T20:55:01.366Z,102005.47
2019-01-10T21:00:10.318Z,101999.05
2019-01-10T21:05:13.000Z,101995.63
2019-01-10T21:10:16.177Z,101989.75
2019-01-10T21:15:22.155Z,101992.75
2019-01-10T21:20:24.511Z,102001.30
2019-01-10T21:25:27.780Z,101999.63
2019-01-10T21:30:30.453Z,101993.67
2019-01-10T21:35:32.610Z,101997.52
2019-01-10T21:40:34.975Z,101991.97
2019-01-10T21:45:38.743Z,101991.11
2019-01-10T21:50:41.369Z,101991.08
2019-01-10T21:55:44.042Z,101983.02
2019-01-10T22:00:46.244Z,101988.97
2019-01-10T22:05:48.826Z,101990.26
2019-01-10T22:10:51.808Z,101987.72
2019-01-10T22:15:53.924Z,101980.06
2019-01-10T22:20:56.466Z,101976.14
2019-01-10T22:25:59.386Z,101981.23
2019-01-10T22:31:02.132Z,101976.95
2019-01-10T22:36:04.537Z,101978.24
2019-01-10T22:41:07.143Z,101972.25
2019-01-10T22:46:09.314Z,101964.16
2019-01-10T22:51:11.661Z,101962.84
2019-01-10T22:56:13.832Z,101958.56
2019-01-10T23:01:45.426Z,101947.05
2019-01-10T23:06:47.751Z,101947.95
2019-01-10T23:11:50.662Z,101948.45
2019-01-10T23:16:53.180Z,101944.61
2019-01-10T23:22:06.084Z,101937.38
2019-01-10T23:27:08.555Z,101937.84
2019-01-10T23:32:13.428Z,101936.13
2019-01-10T23:37:21.522Z,101931.47
2019-01-10T23:42:24.551Z,101928.52
2019-01-10T23:47:26.686Z,101923.80
2019-01-10T23:52:29.339Z,101920.74
2019-01-10T23:57:32.864Z,101915.64
